createdAt,value
2019-03-15T00:02:00.628Z,6.50
2019-03-15T00:04:29.450Z,6.50
2019-03-15T00:06:58.252Z,6.40
2019-03-15T00:09:27.121Z,6.50
2019-03-15T00:11:56.009Z,6.40
2019-03-15T00:14:24.769Z,6.40
2019-03-15T00:16:53.508Z,6.40
2019-03-15T00:19:22.787Z,6.40
2019-03-15T00:21:51.639Z,6.40
2019-03-15T00:24:39.812Z,6.40
2019-03-15T00:27:08.710Z,6.30
2019-03-15T00:29:37.657Z,6.30
2019-03-15T00:32:06.419Z,6.30
2019-03-15T00:34:35.224Z,6.30
2019-03-15T00:37:04.082Z,6.40
2019-03-15T00:39:34.264Z,6.40
2019-03-15T00:42:03.386Z,6.40
2019-03-15T00:44:32.228Z,6.40
2019-03-15T00:47:01.182Z,6.40
2019-03-15T00:49:34.318Z,6.40
2019-03-15T00:52:00.522Z,6.40
2019-03-15T00:54:29.332Z,6.40
2019-03-15T00:56:58.119Z,6.40
2019-03-15T00:59:26.914Z,6.40
2019-03-15T01:01:57.205Z,6.40
2019-03-15T01:04:26.220Z,6.40
2019-03-15T01:06:54.948Z,6.40
2019-03-15T01:09:25.111Z,6.50
2019-03-15T01:11:53.840Z,6.50
2019-03-15T01:14:22.810Z,6.50
2019-03-15T01:16:51.621Z,6.50
2019-03-15T01:19:20.469Z,6.50
2019-03-15T01:21:49.297Z,6.50
2019-03-15T01:24:18.254Z,6.50
2019-03-15T01:26:47.195Z,6.50
2019-03-15T01:29:16.347Z,6.50
2019-03-15T01:31:45.100Z,6.50
2019-03-15T01:34:13.940Z,6.60
2019-03-15T01:36:42.782Z,6.60
2019-03-15T01:39:11.504Z,6.60
2019-03-15T01:41:40.405Z,6.60
2019-03-15T01:44:09.615Z,6.60
2019-03-15T01:46:38.429Z,6.60
2019-03-15T01:49:07.200Z,6.60
2019-03-15T01:51:35.965Z,6.60
2019-03-15T01:54:05.081Z,6.60
2019-03-15T01:56:34.265Z,6.60
2019-03-15T01:59:03.334Z,6.60
2019-03-15T02:01:32.152Z,6.60
2019-03-15T02:04:00.912Z,6.60
2019-03-15T02:06:29.682Z,6.60
2019-03-15T02:08:58.728Z,6.50
2019-03-15T02:11:27.476Z,6.50
2019-03-15T02:13:56.316Z,6.40
2019-03-15T02:16:25.181Z,6.40
2019-03-15T02:18:54.199Z,6.40
2019-03-15T02:21:23.085Z,6.30
2019-03-15T02:23:51.907Z,6.30
2019-03-15T02:26:20.689Z,6.40
2019-03-15T02:28:49.547Z,6.40
2019-03-15T02:31:18.557Z,6.40
2019-03-15T02:33:47.386Z,6.40
2019-03-15T02:36:16.533Z,6.40
2019-03-15T02:38:45.302Z,6.50
2019-03-15T02:41:14.134Z,6.50
2019-03-15T02:43:42.909Z,6.50
2019-03-15T02:46:11.710Z,6.50
2019-03-15T02:48:40.875Z,6.50
2019-03-15T02:51:10.033Z,6.50
2019-03-15T02:53:38.787Z,6.50
2019-03-15T02:56:07.840Z,6.50
2019-03-15T02:58:36.627Z,6.50
2019-03-15T03:01:05.482Z,6.60
2019-03-15T03:03:34.322Z,6.60
2019-03-15T03:06:03.174Z,6.60
2019-03-15T03:08:31.970Z,6.60
2019-03-15T03:11:00.756Z,6.60
2019-03-15T03:13:29.585Z,6.60
2019-03-15T03:15:58.313Z,6.70
2019-03-15T03:18:27.108Z,6.70
2019-03-15T03:20:57.428Z,6.70
2019-03-15T03:23:26.183Z,6.80
2019-03-15T03:25:55.030Z,6.80
2019-03-15T03:28:23.770Z,6.80
2019-03-15T03:30:52.779Z,6.80
2019-03-15T03:33:21.581Z,6.80
2019-03-15T03:35:50.420Z,6.80
2019-03-15T03:38:19.194Z,6.70
2019-03-15T03:40:48.037Z,6.60
2019-03-15T03:43:16.918Z,6.50
2019-03-15T03:45:46.018Z,6.50
2019-03-15T03:48:15.955Z,6.40
2019-03-15T03:50:44.829Z,6.30
2019-03-15T03:53:13.749Z,6.20
2019-03-15T03:55:42.534Z,6.20
2019-03-15T03:58:11.302Z,6.10
2019-03-15T04:00:40.497Z,6.10
2019-03-15T04:03:09.365Z,6.10
2019-03-15T04:05:38.263Z,6.20
2019-03-15T04:08:07.121Z,6.10
2019-03-15T04:10:35.985Z,6.10
2019-03-15T04:13:04.784Z,6.10
2019-03-15T04:15:33.561Z,6.10
2019-03-15T04:18:02.336Z,6.10
2019-03-15T04:20:31.109Z,6.20
2019-03-15T04:22:59.851Z,6.20
2019-03-15T04:25:28.618Z,6.20
2019-03-15T04:27:58.239Z,6.30
2019-03-15T04:30:27.241Z,6.30
2019-03-15T04:32:56.134Z,6.40
2019-03-15T04:35:25.091Z,6.40
2019-03-15T04:37:54.043Z,6.40
2019-03-15T04:40:22.799Z,6.40
2019-03-15T04:42:51.558Z,6.50
2019-03-15T04:48:08.075Z,6.50
2019-03-15T04:50:36.899Z,6.60
2019-03-15T04:53:05.701Z,6.50
2019-03-15T04:55:34.440Z,6.50
2019-03-15T04:58:03.240Z,6.50
2019-03-15T05:00:31.969Z,6.50
2019-03-15T05:03:00.760Z,6.50
2019-03-15T05:05:29.570Z,6.50
2019-03-15T05:07:58.330Z,6.50
2019-03-15T05:10:27.118Z,6.50
2019-03-15T05:12:56.311Z,6.50
2019-03-15T05:15:25.059Z,6.50
2019-03-15T05:17:53.781Z,6.50
2019-03-15T05:20:22.642Z,6.40
2019-03-15T05:22:51.487Z,6.40
2019-03-15T05:25:20.352Z,6.40
2019-03-15T05:27:49.258Z,6.40
2019-03-15T05:30:18.016Z,6.40
2019-03-15T05:32:46.806Z,6.40
2019-03-15T05:35:15.598Z,6.30
2019-03-15T05:37:44.438Z,6.30
2019-03-15T05:40:13.241Z,6.30
2019-03-15T05:42:42.069Z,6.20
2019-03-15T05:45:11.300Z,6.20
2019-03-15T05:47:40.098Z,6.20
2019-03-15T05:50:11.455Z,6.30
2019-03-15T05:52:40.263Z,6.30
2019-03-15T05:55:13.529Z,6.30
2019-03-15T05:57:42.326Z,6.40
2019-03-15T06:00:14.343Z,6.40
2019-03-15T06:02:43.185Z,6.50
2019-03-15T06:05:12.194Z,6.50
2019-03-15T06:07:40.997Z,6.60
2019-03-15T06:10:12.361Z,6.60
2019-03-15T06:12:41.187Z,6.70
2019-03-15T06:15:10.857Z,6.60
2019-03-15T06:17:39.609Z,6.50
2019-03-15T06:20:14.267Z,6.50
2019-03-15T06:22:43.008Z,6.60
2019-03-15T06:25:12.837Z,6.50
2019-03-15T06:27:41.642Z,6.50
2019-03-15T06:30:13.511Z,6.50
2019-03-15T06:32:42.274Z,6.60
2019-03-15T06:35:11.114Z,6.70
2019-03-15T06:37:39.942Z,6.70
2019-03-15T06:40:13.236Z,6.70
2019-03-15T06:42:40.596Z,6.80
2019-03-15T06:45:12.406Z,6.90
2019-03-15T06:47:41.266Z,7.00
2019-03-15T06:50:10.573Z,7.20
2019-03-15T06:52:39.350Z,7.40
2019-03-15T06:55:09.079Z,7.40
2019-03-15T06:57:37.916Z,7.50
2019-03-15T07:00:14.287Z,7.50
2019-03-15T07:02:43.078Z,7.50
2019-03-15T07:05:12.675Z,7.40
2019-03-15T07:07:41.612Z,7.30
2019-03-15T07:10:11.478Z,7.30
2019-03-15T07:12:40.881Z,7.30
2019-03-15T07:15:11.278Z,7.20
2019-03-15T07:17:40.060Z,7.20
2019-03-15T07:20:11.540Z,7.20
2019-03-15T07:22:40.412Z,7.10
2019-03-15T07:25:10.085Z,7.10
2019-03-15T07:27:42.319Z,7.30
2019-03-15T07:30:16.884Z,7.40
2019-03-15T07:32:45.697Z,7.60
2019-03-15T07:35:14.442Z,7.70
2019-03-15T07:37:45.517Z,7.70
2019-03-15T07:40:13.932Z,7.80
2019-03-15T07:42:42.653Z,7.90
2019-03-15T07:45:13.110Z,7.80
2019-03-15T07:47:41.866Z,7.70
2019-03-15T07:50:14.421Z,7.70
2019-03-15T07:52:43.572Z,7.90
2019-03-15T07:55:12.381Z,8.00
2019-03-15T07:57:41.134Z,8.20
2019-03-15T08:00:14.742Z,8.40
2019-03-15T08:02:43.501Z,8.50
2019-03-15T08:05:12.346Z,8.40
2019-03-15T08:07:45.324Z,8.20
2019-03-15T08:10:12.991Z,8.20
2019-03-15T08:12:41.799Z,8.40
2019-03-15T08:15:12.372Z,8.50
2019-03-15T08:17:41.133Z,8.50
2019-03-15T08:20:11.535Z,8.50
2019-03-15T08:22:40.282Z,8.40
2019-03-15T08:25:10.876Z,8.40
2019-03-15T08:27:39.708Z,8.40
2019-03-15T08:30:16.138Z,8.50
2019-03-15T08:32:44.902Z,8.70
2019-03-15T08:35:13.997Z,8.70
2019-03-15T08:37:42.878Z,8.90
2019-03-15T08:40:13.650Z,9.00
2019-03-15T08:42:42.516Z,8.70
2019-03-15T08:45:16.897Z,8.70
2019-03-15T08:47:45.744Z,8.90
2019-03-15T08:50:16.685Z,9.00
2019-03-15T08:52:45.550Z,8.90
2019-03-15T08:55:14.946Z,8.70
2019-03-15T08:57:43.878Z,8.90
2019-03-15T09:00:16.690Z,9.00
2019-03-15T09:02:45.574Z,8.90
2019-03-15T09:05:15.300Z,8.80
2019-03-15T09:07:44.202Z,8.70
2019-03-15T09:10:24.030Z,8.80
2019-03-15T09:12:50.411Z,9.00
2019-03-15T09:15:19.224Z,9.20
2019-03-15T09:17:48.009Z,9.30
2019-03-15T09:20:16.898Z,9.30
2019-03-15T09:22:45.934Z,9.40
2019-03-15T09:25:19.712Z,9.50
2019-03-15T09:27:46.825Z,9.60
2019-03-15T09:30:23.568Z,9.80
2019-03-15T09:32:48.910Z,10.10
2019-03-15T09:35:17.668Z,10.10
2019-03-15T09:37:47.651Z,10.00
2019-03-15T09:40:16.908Z,10.10
2019-03-15T09:42:45.664Z,10.00
2019-03-15T09:45:20.306Z,9.80
2019-03-15T09:47:49.089Z,9.70
2019-03-15T09:50:26.629Z,9.40
2019-03-15T09:52:48.352Z,9.30
2019-03-15T09:55:17.165Z,9.30
2019-03-15T09:57:45.917Z,9.50
2019-03-15T10:00:18.494Z,9.60
2019-03-15T10:02:47.334Z,9.60
2019-03-15T10:05:16.270Z,9.80
2019-03-15T10:07:46.700Z,9.80
2019-03-15T10:10:19.189Z,9.80
2019-03-15T10:12:48.155Z,9.90
2019-03-15T10:15:17.444Z,10.10
2019-03-15T10:17:46.875Z,10.10
2019-03-15T10:20:15.900Z,10.00
2019-03-15T10:22:44.663Z,10.20
2019-03-15T10:25:17.326Z,10.60
2019-03-15T10:27:46.152Z,10.80
2019-03-15T10:30:19.526Z,11.10
2019-03-15T10:32:48.342Z,11.40
2019-03-15T10:35:17.277Z,11.20
2019-03-15T10:37:46.012Z,11.00
2019-03-15T10:40:17.240Z,10.80
2019-03-15T10:42:46.077Z,10.50
2019-03-15T10:45:14.994Z,10.40
2019-03-15T10:47:43.958Z,10.30
2019-03-15T10:50:19.706Z,10.20
2019-03-15T10:52:48.440Z,10.10
2019-03-15T10:55:20.500Z,10.00
2019-03-15T10:57:47.704Z,10.00
2019-03-15T11:00:19.728Z,9.90
2019-03-15T11:02:48.669Z,9.90
2019-03-15T11:05:17.454Z,9.90
2019-03-15T11:07:46.241Z,10.00
2019-03-15T11:10:15.139Z,10.00
2019-03-15T11:12:43.964Z,10.00
2019-03-15T11:15:14.369Z,10.20
2019-03-15T11:17:43.293Z,10.70
2019-03-15T11:20:12.863Z,11.50
2019-03-15T11:22:41.736Z,11.40
2019-03-15T11:25:11.584Z,11.10
2019-03-15T11:27:40.437Z,10.80
2019-03-15T11:30:11.806Z,10.90
2019-03-15T11:32:40.651Z,11.20
2019-03-15T11:35:10.046Z,11.10
2019-03-15T11:37:38.870Z,11.40
2019-03-15T11:40:19.172Z,11.50
2019-03-15T11:42:48.109Z,11.10
2019-03-15T11:45:16.930Z,10.80
2019-03-15T11:48:01.876Z,10.80
2019-03-15T11:50:20.085Z,10.70
2019-03-15T11:52:49.266Z,10.60
2019-03-15T11:55:18.435Z,10.70
2019-03-15T11:57:47.170Z,10.70
2019-03-15T12:00:16.988Z,10.70
2019-03-15T12:02:45.753Z,11.00
2019-03-15T12:05:15.176Z,11.30
2019-03-15T12:07:44.190Z,11.20
2019-03-15T12:10:14.190Z,11.00
2019-03-15T12:12:43.030Z,11.00
2019-03-15T12:15:16.501Z,11.00
2019-03-15T12:17:45.254Z,10.90
2019-03-15T12:20:14.842Z,10.80
2019-03-15T12:22:43.610Z,10.70
2019-03-15T12:25:13.050Z,10.60
2019-03-15T12:27:41.821Z,10.30
2019-03-15T12:30:17.647Z,10.20
2019-03-15T12:32:46.402Z,10.10
2019-03-15T12:35:17.913Z,10.10
2019-03-15T12:37:46.660Z,10.10
2019-03-15T12:40:17.655Z,10.20
2019-03-15T12:42:46.682Z,10.20
2019-03-15T12:45:16.158Z,10.30
2019-03-15T12:47:44.929Z,10.10
2019-03-15T12:50:14.786Z,10.00
2019-03-15T12:52:47.738Z,9.90
2019-03-15T12:55:14.848Z,9.90
2019-03-15T12:57:43.588Z,9.90
2019-03-15T13:00:16.274Z,9.90
2019-03-15T13:02:45.153Z,9.90
2019-03-15T13:05:14.162Z,9.80
2019-03-15T13:07:42.928Z,9.60
2019-03-15T13:10:17.261Z,9.60
2019-03-15T13:12:46.177Z,9.70
2019-03-15T13:15:16.050Z,9.70
2019-03-15T13:17:44.948Z,9.70
2019-03-15T13:20:15.242Z,9.90
2019-03-15T13:22:44.084Z,10.00
2019-03-15T13:25:13.129Z,10.00
2019-03-15T13:27:41.897Z,9.90
2019-03-15T13:30:12.645Z,9.60
2019-03-15T13:32:43.539Z,9.50
2019-03-15T13:35:12.300Z,9.30
2019-03-15T13:37:43.152Z,9.30
2019-03-15T13:40:16.374Z,9.20
2019-03-15T13:42:45.290Z,9.10
2019-03-15T13:45:15.093Z,9.00
2019-03-15T13:47:43.833Z,8.90
2019-03-15T13:50:18.343Z,8.80
2019-03-15T13:52:47.175Z,8.60
2019-03-15T13:55:15.933Z,8.60
2019-03-15T13:57:44.674Z,8.60
2019-03-15T14:00:17.204Z,8.60
2019-03-15T14:02:46.039Z,8.50
2019-03-15T14:05:14.813Z,8.50
2019-03-15T14:07:43.583Z,8.30
2019-03-15T14:10:14.507Z,8.20
2019-03-15T14:12:43.257Z,8.00
2019-03-15T14:15:14.163Z,7.90
2019-03-15T14:17:42.940Z,7.90
2019-03-15T14:20:13.046Z,7.90
2019-03-15T14:22:41.888Z,7.90
2019-03-15T14:25:13.135Z,7.90
2019-03-15T14:27:41.970Z,7.90
2019-03-15T14:30:15.055Z,7.90
2019-03-15T14:32:43.790Z,7.80
2019-03-15T14:35:12.582Z,7.80
2019-03-15T14:37:41.540Z,7.70
2019-03-15T14:40:11.748Z,7.70
2019-03-15T14:42:41.042Z,7.60
2019-03-15T14:45:12.153Z,7.50
2019-03-15T14:47:41.105Z,7.50
2019-03-15T14:50:11.582Z,7.50
2019-03-15T14:52:40.447Z,7.50
2019-03-15T14:55:13.109Z,7.40
2019-03-15T14:57:52.048Z,7.40
2019-03-15T15:00:14.726Z,7.40
2019-03-15T15:02:43.485Z,7.40
2019-03-15T15:05:12.777Z,7.40
2019-03-15T15:07:41.847Z,7.40
2019-03-15T15:10:16.033Z,7.40
2019-03-15T15:12:44.911Z,7.50
2019-03-15T15:15:15.652Z,7.50
2019-03-15T15:17:44.491Z,7.50
2019-03-15T15:20:13.566Z,7.50
2019-03-15T15:22:42.490Z,7.60
2019-03-15T15:25:12.367Z,7.60
2019-03-15T15:27:41.109Z,7.60
2019-03-15T15:30:12.496Z,7.60
2019-03-15T15:32:41.274Z,7.70
2019-03-15T15:35:11.557Z,7.80
2019-03-15T15:37:40.393Z,7.80
2019-03-15T15:40:18.814Z,7.90
2019-03-15T15:42:47.677Z,7.90
2019-03-15T15:45:16.703Z,8.00
2019-03-15T15:47:45.501Z,8.00
2019-03-15T15:50:15.586Z,8.10
2019-03-15T15:52:44.324Z,8.10
2019-03-15T15:55:15.167Z,8.20
2019-03-15T15:57:43.946Z,8.20
2019-03-15T16:00:20.057Z,8.20
2019-03-15T16:02:48.826Z,8.20
2019-03-15T16:05:17.602Z,8.30
2019-03-15T16:07:46.428Z,8.40
2019-03-15T16:10:17.941Z,8.40
2019-03-15T16:12:46.292Z,8.40
2019-03-15T16:15:20.928Z,8.40
2019-03-15T16:17:49.985Z,8.50
2019-03-15T16:20:18.982Z,8.50
2019-03-15T16:22:47.745Z,8.50
2019-03-15T16:25:16.476Z,8.50
2019-03-15T16:27:45.239Z,8.60
2019-03-15T16:30:20.999Z,8.70
2019-03-15T16:32:49.758Z,8.70
2019-03-15T16:35:18.623Z,8.70
2019-03-15T16:37:47.355Z,8.80
2019-03-15T16:40:16.574Z,8.80
2019-03-15T16:42:45.395Z,8.80
2019-03-15T16:45:21.709Z,8.80
2019-03-15T16:47:50.466Z,8.80
2019-03-15T16:50:19.192Z,8.80
2019-03-15T16:52:47.977Z,8.80
2019-03-15T16:55:16.969Z,8.80
2019-03-15T16:57:45.807Z,8.80
2019-03-15T17:00:16.380Z,8.80
2019-03-15T17:02:45.185Z,8.80
2019-03-15T17:05:14.505Z,8.80
2019-03-15T17:07:43.472Z,8.90
2019-03-15T17:10:16.391Z,8.90
2019-03-15T17:12:45.302Z,8.90
2019-03-15T17:15:17.154Z,8.90
2019-03-15T17:17:46.017Z,9.00
2019-03-15T17:20:14.985Z,9.00
2019-03-15T17:22:43.865Z,9.00
2019-03-15T17:25:12.943Z,9.00
2019-03-15T17:27:41.674Z,9.00
2019-03-15T17:30:15.551Z,9.00
2019-03-15T17:32:44.417Z,9.00
2019-03-15T17:35:15.546Z,9.00
2019-03-15T17:37:44.313Z,9.00
2019-03-15T17:40:15.521Z,9.10
2019-03-15T17:42:44.419Z,9.10
2019-03-15T17:45:13.400Z,9.10
2019-03-15T17:47:42.167Z,9.10
2019-03-15T17:50:14.193Z,9.20
2019-03-15T17:52:43.013Z,9.30
2019-03-15T17:55:12.133Z,9.30
2019-03-15T17:57:40.950Z,9.40
2019-03-15T18:00:12.193Z,9.40
2019-03-15T18:02:40.956Z,9.30
2019-03-15T18:05:10.259Z,9.30
2019-03-15T18:07:39.025Z,9.40
2019-03-15T18:10:08.788Z,9.40
2019-03-15T18:12:37.537Z,9.40
2019-03-15T18:15:08.651Z,9.30
2019-03-15T18:17:37.477Z,9.30
2019-03-15T18:20:08.185Z,9.30
2019-03-15T18:22:36.912Z,9.30
2019-03-15T18:25:07.601Z,9.40
2019-03-15T18:27:36.377Z,9.30
2019-03-15T18:30:10.989Z,9.30
2019-03-15T18:32:39.807Z,9.30
2019-03-15T18:35:10.099Z,9.20
2019-03-15T18:37:38.939Z,9.20
2019-03-15T18:40:20.173Z,9.10
2019-03-15T18:42:48.904Z,9.10
2019-03-15T18:45:18.532Z,9.10
2019-03-15T18:47:47.337Z,9.00
2019-03-15T18:50:21.089Z,9.00
2019-03-15T18:52:50.004Z,9.00
2019-03-15T18:55:18.811Z,9.00
2019-03-15T18:57:47.565Z,9.10
2019-03-15T19:00:20.485Z,9.20
2019-03-15T19:02:49.224Z,9.20
2019-03-15T19:05:18.139Z,9.30
2019-03-15T19:07:46.878Z,9.30
2019-03-15T19:10:16.567Z,9.30
2019-03-15T19:12:45.373Z,9.30
2019-03-15T19:15:16.669Z,9.30
2019-03-15T19:17:45.806Z,9.30
2019-03-15T19:20:16.528Z,9.40
2019-03-15T19:22:45.271Z,9.30
2019-03-15T19:25:15.048Z,9.30
2019-03-15T19:27:43.906Z,9.40
2019-03-15T19:30:17.702Z,9.30
2019-03-15T19:32:46.525Z,9.30
2019-03-15T19:35:15.339Z,9.20
2019-03-15T19:37:44.194Z,9.10
2019-03-15T19:40:18.155Z,9.00
2019-03-15T19:42:46.925Z,8.90
2019-03-15T19:45:16.650Z,8.90
2019-03-15T19:47:47.099Z,8.90
2019-03-15T19:50:20.209Z,8.80
2019-03-15T19:52:49.014Z,8.80
2019-03-15T19:55:17.788Z,8.80
2019-03-15T19:57:46.668Z,8.80
2019-03-15T20:00:17.653Z,8.80
2019-03-15T20:02:46.474Z,8.70
2019-03-15T20:05:15.253Z,8.70
2019-03-15T20:07:44.163Z,8.60
2019-03-15T20:10:16.414Z,8.60
2019-03-15T20:12:44.566Z,8.60
2019-03-15T20:15:14.851Z,8.50
2019-03-15T20:17:43.694Z,8.50
2019-03-15T20:20:17.377Z,8.50
2019-03-15T20:22:46.178Z,8.40
2019-03-15T20:25:15.958Z,8.40
2019-03-15T20:27:44.813Z,8.40
2019-03-15T20:30:26.568Z,8.30
2019-03-15T20:32:54.921Z,8.30
2019-03-15T20:35:25.310Z,8.30
2019-03-15T20:37:54.158Z,8.30
2019-03-15T20:40:23.066Z,8.30
2019-03-15T20:42:51.853Z,8.20
2019-03-15T20:45:22.853Z,8.20
2019-03-15T20:47:51.652Z,8.20
2019-03-15T20:50:20.404Z,8.20
2019-03-15T20:52:49.158Z,8.10
2019-03-15T20:55:17.896Z,8.10
2019-03-15T20:57:46.639Z,8.10
2019-03-15T21:00:17.518Z,8.10
2019-03-15T21:02:46.498Z,8.00
2019-03-15T21:05:15.333Z,8.00
2019-03-15T21:07:44.169Z,8.00
2019-03-15T21:10:19.159Z,8.10
2019-03-15T21:12:48.273Z,8.10
2019-03-15T21:15:17.507Z,8.10
2019-03-15T21:17:46.290Z,8.00
2019-03-15T21:20:22.311Z,8.00
2019-03-15T21:22:50.127Z,8.00
2019-03-15T21:25:19.143Z,8.00
2019-03-15T21:27:54.264Z,8.00
2019-03-15T21:30:25.708Z,7.90
2019-03-15T21:32:54.551Z,7.90
2019-03-15T21:35:23.311Z,7.90
2019-03-15T21:37:52.120Z,7.90
2019-03-15T21:40:21.905Z,7.90
2019-03-15T21:42:50.688Z,7.80
2019-03-15T21:45:19.813Z,7.80
2019-03-15T21:47:48.601Z,7.80
2019-03-15T21:50:22.523Z,7.80
2019-03-15T21:52:51.544Z,7.90
2019-03-15T21:55:20.394Z,7.80
2019-03-15T21:57:49.162Z,7.80
2019-03-15T22:00:20.115Z,7.70
2019-03-15T22:02:48.957Z,7.70
2019-03-15T22:05:17.805Z,7.70
2019-03-15T22:07:46.542Z,7.60
2019-03-15T22:10:16.332Z,7.60
2019-03-15T22:12:45.180Z,7.60
2019-03-15T22:15:14.173Z,7.60
2019-03-15T22:17:43.016Z,7.60
2019-03-15T22:20:15.961Z,7.60
2019-03-15T22:22:44.755Z,7.60
2019-03-15T22:25:13.516Z,7.60
2019-03-15T22:27:42.437Z,7.50
2019-03-15T22:30:15.557Z,7.50
2019-03-15T22:32:44.298Z,7.50
2019-03-15T22:35:13.077Z,7.50
2019-03-15T22:37:41.876Z,7.50
2019-03-15T22:40:11.897Z,7.50
2019-03-15T22:42:40.730Z,7.40
2019-03-15T22:45:11.520Z,7.40
2019-03-15T22:47:40.423Z,7.40
2019-03-15T22:50:13.385Z,7.40
2019-03-15T22:52:42.262Z,7.40
2019-03-15T22:55:11.826Z,7.40
2019-03-15T22:57:40.829Z,7.40
2019-03-15T23:00:15.613Z,7.30
2019-03-15T23:02:44.677Z,7.40
2019-03-15T23:05:14.033Z,7.40
2019-03-15T23:07:42.811Z,7.30
2019-03-15T23:10:11.902Z,7.30
2019-03-15T23:12:40.666Z,7.30
2019-03-15T23:15:13.025Z,7.20
2019-03-15T23:17:41.855Z,7.30
2019-03-15T23:20:13.733Z,7.30
2019-03-15T23:22:42.462Z,7.30
2019-03-15T23:25:11.320Z,7.20
2019-03-15T23:27:40.130Z,7.20
2019-03-15T23:30:11.986Z,7.20
2019-03-15T23:32:40.994Z,7.20
2019-03-15T23:35:09.812Z,7.20
2019-03-15T23:37:38.558Z,7.20
2019-03-15T23:40:09.356Z,7.10
2019-03-15T23:42:38.181Z,7.20
2019-03-15T23:45:09.379Z,7.20
2019-03-15T23:47:38.343Z,7.20
2019-03-15T23:50:09.972Z,7.20
2019-03-15T23:52:38.781Z,7.10
2019-03-15T23:55:07.755Z,7.20
2019-03-15T23:57:36.558Z,7.20
